Terminal Aerodrome Forecast
Issued by NWS

Home | Current Version | Previous Version | Text Only | Print | Product List | Glossary On
Versions: 1 2 3 4 5 6 7 8 9 10 11 12 13 14
000
FTUS45 KABQ 050530
TAFLVS
TAF
KLVS 050530Z 0506/0606 21006KT P6SM SCT060 BKN090
     FM051100 20008KT P6SM BKN025
     FM051600 22012G20KT P6SM SCT070
     FM052000 22017G25KT P6SM VCTS SCT060CB
     FM060000 22010KT P6SM SCT120=

USA.gov is the U.S. government's official web portal to all federal, state and local government web resources and services.